Metar z połowy godziny Komunikat METAR ze strony awiacja.imgw.pl Metar G00 EPLB METAR EPLB 230730Z 29012KT CAVOK 08/M00 Q1019 =